sensor_id;sensor_type;location;lat;lon;timestamp;temperature;humidity
33717;DHT22;20046;50.746;7.072;2023-05-10T00:00:00;13.00;99.90
33717;DHT22;20046;50.746;7.072;2023-05-10T00:02:26;12.90;99.90
33717;DHT22;20046;50.746;7.072;2023-05-10T00:04:52;12.90;99.90
33717;DHT22;20046;50.746;7.072;2023-05-10T00:07:17;13.00;99.90
33717;DHT22;20046;50.746;7.072;2023-05-10T00:09:43;12.90;99.90
33717;DHT22;20046;50.746;7.072;2023-05-10T00:12:09;13.00;99.90
33717;DHT22;20046;50.746;7.072;2023-05-10T00:14:35;12.90;99.90
33717;DHT22;20046;50.746;7.072;2023-05-10T00:17:00;12.90;99.90
33717;DHT22;20046;50.746;7.072;2023-05-10T00:19:26;12.90;99.90
33717;DHT22;20046;50.746;7.072;2023-05-10T00:21:52;12.90;99.90
33717;DHT22;20046;50.746;7.072;2023-05-10T00:24:17;12.90;99.90
33717;DHT22;20046;50.746;7.072;2023-05-10T00:26:43;12.90;99.90
33717;DHT22;20046;50.746;7.072;2023-05-10T00:29:09;12.90;99.90
33717;DHT22;20046;50.746;7.072;2023-05-10T00:31:34;12.90;99.90
33717;DHT22;20046;50.746;7.072;2023-05-10T00:34:00;12.90;99.90
33717;DHT22;20046;50.746;7.072;2023-05-10T00:36:25;12.90;99.90
33717;DHT22;20046;50.746;7.072;2023-05-10T00:38:51;12.90;99.90
33717;DHT22;20046;50.746;7.072;2023-05-10T00:41:16;12.90;99.90
33717;DHT22;20046;50.746;7.072;2023-05-10T00:43:42;12.90;99.90
33717;DHT22;20046;50.746;7.072;2023-05-10T00:46:08;12.90;99.90
33717;DHT22;20046;50.746;7.072;2023-05-10T00:48:34;12.90;99.90
33717;DHT22;20046;50.746;7.072;2023-05-10T00:51:01;12.90;99.90
33717;DHT22;20046;50.746;7.072;2023-05-10T00:53:26;12.90;99.90
33717;DHT22;20046;50.746;7.072;2023-05-10T00:55:52;12.90;99.90
33717;DHT22;20046;50.746;7.072;2023-05-10T00:58:18;12.90;99.90
33717;DHT22;20046;50.746;7.072;2023-05-10T01:00:44;13.00;99.90
33717;DHT22;20046;50.746;7.072;2023-05-10T01:03:11;12.90;99.90
33717;DHT22;20046;50.746;7.072;2023-05-10T01:05:37;12.90;99.90
33717;DHT22;20046;50.746;7.072;2023-05-10T01:08:03;13.00;99.90
33717;DHT22;20046;50.746;7.072;2023-05-10T01:10:29;13.00;99.90
33717;DHT22;20046;50.746;7.072;2023-05-10T01:12:55;13.00;99.90
33717;DHT22;20046;50.746;7.072;2023-05-10T01:15:22;13.00;99.90
33717;DHT22;20046;50.746;7.072;2023-05-10T01:17:48;13.00;99.90
33717;DHT22;20046;50.746;7.072;2023-05-10T01:20:14;13.00;99.90
33717;DHT22;20046;50.746;7.072;2023-05-10T01:23:35;13.00;99.90
33717;DHT22;20046;50.746;7.072;2023-05-10T01:33:56;13.00;99.90
33717;DHT22;20046;50.746;7.072;2023-05-10T01:46:38;13.00;99.90
33717;DHT22;20046;50.746;7.072;2023-05-10T01:49:11;12.90;99.90
33717;DHT22;20046;50.746;7.072;2023-05-10T01:51:44;12.90;99.90
33717;DHT22;20046;50.746;7.072;2023-05-10T01:54:13;12.90;99.90
33717;DHT22;20046;50.746;7.072;2023-05-10T01:56:39;12.90;99.90
33717;DHT22;20046;50.746;7.072;2023-05-10T01:59:11;12.90;99.90
33717;DHT22;20046;50.746;7.072;2023-05-10T02:01:38;12.80;99.90
33717;DHT22;20046;50.746;7.072;2023-05-10T02:04:07;12.90;99.90
33717;DHT22;20046;50.746;7.072;2023-05-10T02:06:33;12.80;99.90
33717;DHT22;20046;50.746;7.072;2023-05-10T02:09:01;12.80;99.90
33717;DHT22;20046;50.746;7.072;2023-05-10T02:11:27;12.80;99.90
33717;DHT22;20046;50.746;7.072;2023-05-10T02:13:54;12.80;99.90
33717;DHT22;20046;50.746;7.072;2023-05-10T02:16:24;12.90;99.90
33717;DHT22;20046;50.746;7.072;2023-05-10T02:18:52;12.80;99.90
33717;DHT22;20046;50.746;7.072;2023-05-10T02:21:19;12.90;99.90
33717;DHT22;20046;50.746;7.072;2023-05-10T02:23:46;12.80;99.90
33717;DHT22;20046;50.746;7.072;2023-05-10T02:26:14;12.80;99.90
33717;DHT22;20046;50.746;7.072;2023-05-10T02:28:40;12.80;99.90
33717;DHT22;20046;50.746;7.072;2023-05-10T02:31:07;12.80;99.90
33717;DHT22;20046;50.746;7.072;2023-05-10T02:33:37;12.80;99.90
33717;DHT22;20046;50.746;7.072;2023-05-10T02:36:04;12.80;99.90
33717;DHT22;20046;50.746;7.072;2023-05-10T02:38:31;12.80;99.90
33717;DHT22;20046;50.746;7.072;2023-05-10T02:40:58;12.80;99.90
33717;DHT22;20046;50.746;7.072;2023-05-10T02:43:24;12.80;99.90
33717;DHT22;20046;50.746;7.072;2023-05-10T02:45:50;12.70;99.90
33717;DHT22;20046;50.746;7.072;2023-05-10T02:48:16;12.80;99.90
33717;DHT22;20046;50.746;7.072;2023-05-10T02:50:46;12.80;99.90
33717;DHT22;20046;50.746;7.072;2023-05-10T02:53:18;12.80;99.90
33717;DHT22;20046;50.746;7.072;2023-05-10T02:55:45;12.80;99.90
33717;DHT22;20046;50.746;7.072;2023-05-10T02:58:14;12.80;99.90
33717;DHT22;20046;50.746;7.072;2023-05-10T03:00:40;12.80;99.90
33717;DHT22;20046;50.746;7.072;2023-05-10T03:03:05;12.70;99.90
33717;DHT22;20046;50.746;7.072;2023-05-10T03:05:32;12.70;99.90
33717;DHT22;20046;50.746;7.072;2023-05-10T03:07:59;12.70;99.90
33717;DHT22;20046;50.746;7.072;2023-05-10T03:10:29;12.70;99.90
33717;DHT22;20046;50.746;7.072;2023-05-10T03:12:59;12.70;99.90
33717;DHT22;20046;50.746;7.072;2023-05-10T03:18:29;12.70;99.90
33717;DHT22;20046;50.746;7.072;2023-05-10T03:21:02;12.70;99.90
33717;DHT22;20046;50.746;7.072;2023-05-10T03:26:00;12.70;99.90
33717;DHT22;20046;50.746;7.072;2023-05-10T03:28:26;12.70;99.90
33717;DHT22;20046;50.746;7.072;2023-05-10T03:30:53;12.80;99.90
33717;DHT22;20046;50.746;7.072;2023-05-10T03:33:20;12.80;99.90
33717;DHT22;20046;50.746;7.072;2023-05-10T03:35:46;12.80;99.90
33717;DHT22;20046;50.746;7.072;2023-05-10T03:38:12;12.80;99.90
33717;DHT22;20046;50.746;7.072;2023-05-10T03:40:38;12.80;99.90
33717;DHT22;20046;50.746;7.072;2023-05-10T03:43:04;12.80;99.90
33717;DHT22;20046;50.746;7.072;2023-05-10T03:45:29;12.80;99.90
33717;DHT22;20046;50.746;7.072;2023-05-10T03:47:57;12.80;99.90
33717;DHT22;20046;50.746;7.072;2023-05-10T03:50:22;12.80;99.90
33717;DHT22;20046;50.746;7.072;2023-05-10T03:52:48;12.80;99.90
33717;DHT22;20046;50.746;7.072;2023-05-10T03:55:14;12.80;99.90
33717;DHT22;20046;50.746;7.072;2023-05-10T03:57:40;12.80;99.90
33717;DHT22;20046;50.746;7.072;2023-05-10T04:00:06;12.80;99.90
33717;DHT22;20046;50.746;7.072;2023-05-10T04:02:32;12.80;99.90
33717;DHT22;20046;50.746;7.072;2023-05-10T04:04:57;12.80;99.90
33717;DHT22;20046;50.746;7.072;2023-05-10T04:07:23;12.80;99.90
33717;DHT22;20046;50.746;7.072;2023-05-10T04:09:49;12.80;99.90
33717;DHT22;20046;50.746;7.072;2023-05-10T04:12:14;12.90;99.90
33717;DHT22;20046;50.746;7.072;2023-05-10T04:14:40;12.90;99.90
33717;DHT22;20046;50.746;7.072;2023-05-10T04:17:06;12.90;99.90
33717;DHT22;20046;50.746;7.072;2023-05-10T04:19:31;12.90;99.90
33717;DHT22;20046;50.746;7.072;2023-05-10T04:21:58;12.90;99.90
33717;DHT22;20046;50.746;7.072;2023-05-10T04:24:24;12.90;99.90
33717;DHT22;20046;50.746;7.072;2023-05-10T04:26:49;12.90;99.90
33717;DHT22;20046;50.746;7.072;2023-05-10T04:29:15;12.90;99.90
33717;DHT22;20046;50.746;7.072;2023-05-10T04:31:40;13.00;99.90
33717;DHT22;20046;50.746;7.072;2023-05-10T04:34:06;13.00;99.90
33717;DHT22;20046;50.746;7.072;2023-05-10T04:36:32;13.00;99.90
33717;DHT22;20046;50.746;7.072;2023-05-10T04:39:02;13.00;99.90
33717;DHT22;20046;50.746;7.072;2023-05-10T04:41:28;13.00;99.90
33717;DHT22;20046;50.746;7.072;2023-05-10T04:43:53;13.00;99.90
33717;DHT22;20046;50.746;7.072;2023-05-10T04:46:19;13.10;99.90
33717;DHT22;20046;50.746;7.072;2023-05-10T04:48:45;13.10;99.90
33717;DHT22;20046;50.746;7.072;2023-05-10T04:51:11;13.10;99.90
33717;DHT22;20046;50.746;7.072;2023-05-10T04:53:36;13.10;99.90
33717;DHT22;20046;50.746;7.072;2023-05-10T04:56:02;13.10;99.90
33717;DHT22;20046;50.746;7.072;2023-05-10T04:58:28;13.10;99.90
33717;DHT22;20046;50.746;7.072;2023-05-10T05:00:53;13.10;99.90
33717;DHT22;20046;50.746;7.072;2023-05-10T05:03:19;13.10;99.90
33717;DHT22;20046;50.746;7.072;2023-05-10T05:05:44;13.10;99.90
33717;DHT22;20046;50.746;7.072;2023-05-10T05:08:10;13.20;99.90
33717;DHT22;20046;50.746;7.072;2023-05-10T05:10:36;13.20;99.90
33717;DHT22;20046;50.746;7.072;2023-05-10T05:13:01;13.20;99.90
33717;DHT22;20046;50.746;7.072;2023-05-10T05:15:27;13.20;99.90
33717;DHT22;20046;50.746;7.072;2023-05-10T05:17:53;13.30;99.90
33717;DHT22;20046;50.746;7.072;2023-05-10T05:20:18;13.30;99.90
33717;DHT22;20046;50.746;7.072;2023-05-10T05:22:44;13.30;99.90
33717;DHT22;20046;50.746;7.072;2023-05-10T05:25:10;13.30;99.90
33717;DHT22;20046;50.746;7.072;2023-05-10T05:27:37;13.30;99.90
33717;DHT22;20046;50.746;7.072;2023-05-10T05:30:02;13.40;99.90
33717;DHT22;20046;50.746;7.072;2023-05-10T05:32:29;13.40;99.90
33717;DHT22;20046;50.746;7.072;2023-05-10T05:34:55;13.40;99.90
33717;DHT22;20046;50.746;7.072;2023-05-10T05:37:20;13.50;99.90
33717;DHT22;20046;50.746;7.072;2023-05-10T05:39:47;13.60;99.90
33717;DHT22;20046;50.746;7.072;2023-05-10T05:42:13;13.70;99.90
33717;DHT22;20046;50.746;7.072;2023-05-10T05:44:39;13.70;99.90
33717;DHT22;20046;50.746;7.072;2023-05-10T05:47:05;13.80;99.90
33717;DHT22;20046;50.746;7.072;2023-05-10T05:49:31;13.80;99.90
33717;DHT22;20046;50.746;7.072;2023-05-10T05:52:01;13.90;99.90
33717;DHT22;20046;50.746;7.072;2023-05-10T05:54:27;14.00;99.90
33717;DHT22;20046;50.746;7.072;2023-05-10T05:56:54;14.10;99.90
33717;DHT22;20046;50.746;7.072;2023-05-10T05:59:21;14.10;99.90
33717;DHT22;20046;50.746;7.072;2023-05-10T06:01:46;14.20;99.90
33717;DHT22;20046;50.746;7.072;2023-05-10T06:04:12;14.30;99.90
33717;DHT22;20046;50.746;7.072;2023-05-10T06:06:38;14.30;99.90
33717;DHT22;20046;50.746;7.072;2023-05-10T06:09:03;14.40;99.90
33717;DHT22;20046;50.746;7.072;2023-05-10T06:11:29;14.40;99.90
33717;DHT22;20046;50.746;7.072;2023-05-10T06:13:57;14.40;99.90
33717;DHT22;20046;50.746;7.072;2023-05-10T06:16:23;14.40;99.90
33717;DHT22;20046;50.746;7.072;2023-05-10T06:18:49;14.40;99.90
33717;DHT22;20046;50.746;7.072;2023-05-10T06:21:14;14.40;99.90
33717;DHT22;20046;50.746;7.072;2023-05-10T06:23:41;14.30;99.90
33717;DHT22;20046;50.746;7.072;2023-05-10T06:28:35;14.40;99.90
33717;DHT22;20046;50.746;7.072;2023-05-10T06:31:00;14.30;99.90
33717;DHT22;20046;50.746;7.072;2023-05-10T06:33:26;14.30;99.90
33717;DHT22;20046;50.746;7.072;2023-05-10T06:35:52;14.20;99.90
33717;DHT22;20046;50.746;7.072;2023-05-10T06:38:18;14.20;99.90
33717;DHT22;20046;50.746;7.072;2023-05-10T06:40:43;14.20;99.90
33717;DHT22;20046;50.746;7.072;2023-05-10T06:43:09;14.10;99.90
33717;DHT22;20046;50.746;7.072;2023-05-10T06:45:35;14.10;99.90
33717;DHT22;20046;50.746;7.072;2023-05-10T06:48:01;14.00;99.90
33717;DHT22;20046;50.746;7.072;2023-05-10T06:50:26;13.90;99.90
33717;DHT22;20046;50.746;7.072;2023-05-10T06:52:52;13.90;99.90
33717;DHT22;20046;50.746;7.072;2023-05-10T06:55:18;13.90;99.90
33717;DHT22;20046;50.746;7.072;2023-05-10T06:57:43;13.80;99.90
33717;DHT22;20046;50.746;7.072;2023-05-10T07:00:09;13.80;99.90
33717;DHT22;20046;50.746;7.072;2023-05-10T07:02:35;13.80;99.90
33717;DHT22;20046;50.746;7.072;2023-05-10T07:05:01;13.80;99.90
33717;DHT22;20046;50.746;7.072;2023-05-10T07:07:27;13.80;99.90
33717;DHT22;20046;50.746;7.072;2023-05-10T07:09:53;13.80;99.90
33717;DHT22;20046;50.746;7.072;2023-05-10T07:12:18;13.80;99.90
33717;DHT22;20046;50.746;7.072;2023-05-10T07:14:44;13.80;99.90
33717;DHT22;20046;50.746;7.072;2023-05-10T07:17:10;13.90;99.90
33717;DHT22;20046;50.746;7.072;2023-05-10T07:19:35;13.90;99.90
33717;DHT22;20046;50.746;7.072;2023-05-10T07:22:01;13.90;99.90
33717;DHT22;20046;50.746;7.072;2023-05-10T07:24:27;14.00;99.90
33717;DHT22;20046;50.746;7.072;2023-05-10T07:26:52;14.00;99.90
33717;DHT22;20046;50.746;7.072;2023-05-10T07:29:18;14.00;99.90
33717;DHT22;20046;50.746;7.072;2023-05-10T07:31:44;14.00;99.90
33717;DHT22;20046;50.746;7.072;2023-05-10T07:34:09;14.00;99.90
33717;DHT22;20046;50.746;7.072;2023-05-10T07:36:35;14.00;99.90
33717;DHT22;20046;50.746;7.072;2023-05-10T07:39:01;14.00;99.90
33717;DHT22;20046;50.746;7.072;2023-05-10T07:41:27;14.00;99.90
33717;DHT22;20046;50.746;7.072;2023-05-10T07:43:53;14.00;99.90
33717;DHT22;20046;50.746;7.072;2023-05-10T07:46:18;14.00;99.90
33717;DHT22;20046;50.746;7.072;2023-05-10T07:48:45;14.00;99.90
33717;DHT22;20046;50.746;7.072;2023-05-10T07:51:10;14.00;99.90
33717;DHT22;20046;50.746;7.072;2023-05-10T07:53:37;14.10;99.90
33717;DHT22;20046;50.746;7.072;2023-05-10T07:56:25;14.10;99.90
33717;DHT22;20046;50.746;7.072;2023-05-10T07:58:53;14.20;99.90
33717;DHT22;20046;50.746;7.072;2023-05-10T08:01:19;14.20;99.90
33717;DHT22;20046;50.746;7.072;2023-05-10T08:03:45;14.30;99.90
33717;DHT22;20046;50.746;7.072;2023-05-10T08:06:10;14.30;99.90
33717;DHT22;20046;50.746;7.072;2023-05-10T08:08:36;14.40;99.90
33717;DHT22;20046;50.746;7.072;2023-05-10T08:11:03;14.40;99.90
33717;DHT22;20046;50.746;7.072;2023-05-10T08:13:28;14.40;99.90
33717;DHT22;20046;50.746;7.072;2023-05-10T08:15:54;14.50;99.90
33717;DHT22;20046;50.746;7.072;2023-05-10T08:18:20;14.60;99.90
33717;DHT22;20046;50.746;7.072;2023-05-10T08:20:46;14.70;99.90
33717;DHT22;20046;50.746;7.072;2023-05-10T08:23:14;14.80;99.90
33717;DHT22;20046;50.746;7.072;2023-05-10T08:25:41;14.90;99.90
33717;DHT22;20046;50.746;7.072;2023-05-10T08:28:06;15.20;99.90
33717;DHT22;20046;50.746;7.072;2023-05-10T08:30:32;15.30;99.90
33717;DHT22;20046;50.746;7.072;2023-05-10T08:32:57;15.40;99.90
33717;DHT22;20046;50.746;7.072;2023-05-10T08:35:23;15.30;99.90
33717;DHT22;20046;50.746;7.072;2023-05-10T08:37:50;15.30;99.90
33717;DHT22;20046;50.746;7.072;2023-05-10T08:40:15;15.30;99.90
33717;DHT22;20046;50.746;7.072;2023-05-10T08:42:51;15.40;99.90
33717;DHT22;20046;50.746;7.072;2023-05-10T08:45:20;15.40;99.90
33717;DHT22;20046;50.746;7.072;2023-05-10T08:47:47;15.40;99.90
33717;DHT22;20046;50.746;7.072;2023-05-10T08:50:13;15.30;99.90
33717;DHT22;20046;50.746;7.072;2023-05-10T08:52:40;15.40;99.90
33717;DHT22;20046;50.746;7.072;2023-05-10T08:55:06;15.30;99.90
33717;DHT22;20046;50.746;7.072;2023-05-10T08:57:32;15.20;99.90
33717;DHT22;20046;50.746;7.072;2023-05-10T09:00:00;15.20;99.90
33717;DHT22;20046;50.746;7.072;2023-05-10T09:02:26;15.20;99.90
33717;DHT22;20046;50.746;7.072;2023-05-10T09:04:52;15.10;99.90
33717;DHT22;20046;50.746;7.072;2023-05-10T09:07:18;15.10;99.90
33717;DHT22;20046;50.746;7.072;2023-05-10T09:09:45;15.10;99.90
33717;DHT22;20046;50.746;7.072;2023-05-10T09:12:12;15.10;99.90
33717;DHT22;20046;50.746;7.072;2023-05-10T09:14:38;15.20;99.90
33717;DHT22;20046;50.746;7.072;2023-05-10T09:17:05;15.10;99.90
33717;DHT22;20046;50.746;7.072;2023-05-10T09:19:30;15.10;99.90
33717;DHT22;20046;50.746;7.072;2023-05-10T09:21:56;15.00;99.90
33717;DHT22;20046;50.746;7.072;2023-05-10T09:24:25;15.00;99.90
33717;DHT22;20046;50.746;7.072;2023-05-10T09:26:52;15.00;99.90
33717;DHT22;20046;50.746;7.072;2023-05-10T09:29:17;15.10;99.90
33717;DHT22;20046;50.746;7.072;2023-05-10T09:31:52;15.10;99.90
33717;DHT22;20046;50.746;7.072;2023-05-10T09:34:31;15.30;99.90
33717;DHT22;20046;50.746;7.072;2023-05-10T09:37:00;15.40;99.90
33717;DHT22;20046;50.746;7.072;2023-05-10T09:39:37;15.50;99.90
33717;DHT22;20046;50.746;7.072;2023-05-10T09:42:05;15.70;99.90
33717;DHT22;20046;50.746;7.072;2023-05-10T09:44:32;15.80;99.90
33717;DHT22;20046;50.746;7.072;2023-05-10T09:46:58;15.90;99.90
33717;DHT22;20046;50.746;7.072;2023-05-10T09:49:24;16.10;99.90
33717;DHT22;20046;50.746;7.072;2023-05-10T09:52:06;16.30;99.90
33717;DHT22;20046;50.746;7.072;2023-05-10T09:54:33;16.50;99.90
33717;DHT22;20046;50.746;7.072;2023-05-10T09:56:59;16.70;99.90
33717;DHT22;20046;50.746;7.072;2023-05-10T09:59:26;16.80;99.90
33717;DHT22;20046;50.746;7.072;2023-05-10T10:01:55;17.10;99.90
33717;DHT22;20046;50.746;7.072;2023-05-10T10:04:21;17.40;99.90
33717;DHT22;20046;50.746;7.072;2023-05-10T10:07:04;17.80;99.90
33717;DHT22;20046;50.746;7.072;2023-05-10T10:09:30;18.10;99.90
33717;DHT22;20046;50.746;7.072;2023-05-10T10:11:56;18.30;99.90
33717;DHT22;20046;50.746;7.072;2023-05-10T10:14:23;18.30;99.90
33717;DHT22;20046;50.746;7.072;2023-05-10T10:16:51;18.20;99.90
33717;DHT22;20046;50.746;7.072;2023-05-10T10:19:20;18.10;99.90
33717;DHT22;20046;50.746;7.072;2023-05-10T10:21:47;18.10;99.90
33717;DHT22;20046;50.746;7.072;2023-05-10T10:24:13;17.90;99.90
33717;DHT22;20046;50.746;7.072;2023-05-10T10:26:39;17.70;99.90
33717;DHT22;20046;50.746;7.072;2023-05-10T10:29:32;17.50;99.90
33717;DHT22;20046;50.746;7.072;2023-05-10T10:32:19;17.20;99.90
33717;DHT22;20046;50.746;7.072;2023-05-10T10:34:47;16.80;99.90
33717;DHT22;20046;50.746;7.072;2023-05-10T10:37:13;16.60;99.90
33717;DHT22;20046;50.746;7.072;2023-05-10T10:39:38;16.50;99.90
33717;DHT22;20046;50.746;7.072;2023-05-10T10:42:04;16.50;99.90
33717;DHT22;20046;50.746;7.072;2023-05-10T10:49:42;17.80;99.90
33717;DHT22;20046;50.746;7.072;2023-05-10T10:57:32;19.90;99.90
33717;DHT22;20046;50.746;7.072;2023-05-10T11:02:50;18.80;99.90
33717;DHT22;20046;50.746;7.072;2023-05-10T11:05:33;18.50;99.90
33717;DHT22;20046;50.746;7.072;2023-05-10T11:08:07;18.50;99.90
33717;DHT22;20046;50.746;7.072;2023-05-10T11:10:33;19.10;99.90
33717;DHT22;20046;50.746;7.072;2023-05-10T11:15:53;23.20;99.90
33717;DHT22;20046;50.746;7.072;2023-05-10T11:18:20;25.10;99.90
33717;DHT22;20046;50.746;7.072;2023-05-10T11:20:58;26.70;99.90
33717;DHT22;20046;50.746;7.072;2023-05-10T11:26:12;26.50;99.90
33717;DHT22;20046;50.746;7.072;2023-05-10T11:28:46;25.80;99.90
33717;DHT22;20046;50.746;7.072;2023-05-10T11:31:18;25.30;99.90
33717;DHT22;20046;50.746;7.072;2023-05-10T11:33:45;24.70;99.90
33717;DHT22;20046;50.746;7.072;2023-05-10T11:36:13;24.00;99.90
33717;DHT22;20046;50.746;7.072;2023-05-10T11:38:39;23.90;99.90
33717;DHT22;20046;50.746;7.072;2023-05-10T11:41:05;24.10;99.90
33717;DHT22;20046;50.746;7.072;2023-05-10T11:43:30;23.80;99.90
33717;DHT22;20046;50.746;7.072;2023-05-10T11:45:56;23.30;99.90
33717;DHT22;20046;50.746;7.072;2023-05-10T11:48:22;23.00;99.90
33717;DHT22;20046;50.746;7.072;2023-05-10T11:50:49;23.00;99.90
33717;DHT22;20046;50.746;7.072;2023-05-10T11:53:15;23.00;99.90
33717;DHT22;20046;50.746;7.072;2023-05-10T11:55:41;23.00;99.90
33717;DHT22;20046;50.746;7.072;2023-05-10T11:58:06;23.00;99.90
33717;DHT22;20046;50.746;7.072;2023-05-10T12:00:32;22.70;99.90
33717;DHT22;20046;50.746;7.072;2023-05-10T12:03:00;22.50;99.90
33717;DHT22;20046;50.746;7.072;2023-05-10T12:05:26;22.30;99.90
33717;DHT22;20046;50.746;7.072;2023-05-10T12:07:52;21.90;99.90
33717;DHT22;20046;50.746;7.072;2023-05-10T12:10:25;21.50;99.90
33717;DHT22;20046;50.746;7.072;2023-05-10T12:12:52;21.00;99.90
33717;DHT22;20046;50.746;7.072;2023-05-10T12:15:22;20.60;99.90
33717;DHT22;20046;50.746;7.072;2023-05-10T12:17:49;20.10;99.90
33717;DHT22;20046;50.746;7.072;2023-05-10T12:20:17;19.80;99.90
33717;DHT22;20046;50.746;7.072;2023-05-10T12:22:51;19.60;99.90
33717;DHT22;20046;50.746;7.072;2023-05-10T12:25:18;19.50;99.90
33717;DHT22;20046;50.746;7.072;2023-05-10T12:27:57;19.40;99.90
33717;DHT22;20046;50.746;7.072;2023-05-10T12:30:28;19.30;99.90
33717;DHT22;20046;50.746;7.072;2023-05-10T12:33:00;19.20;99.90
33717;DHT22;20046;50.746;7.072;2023-05-10T12:35:27;19.20;99.90
33717;DHT22;20046;50.746;7.072;2023-05-10T12:37:55;19.00;99.90
33717;DHT22;20046;50.746;7.072;2023-05-10T12:40:20;18.80;99.90
33717;DHT22;20046;50.746;7.072;2023-05-10T12:42:46;18.50;99.90
33717;DHT22;20046;50.746;7.072;2023-05-10T12:45:12;18.20;99.90
33717;DHT22;20046;50.746;7.072;2023-05-10T12:47:38;18.00;99.90
33717;DHT22;20046;50.746;7.072;2023-05-10T12:50:04;17.70;99.90
33717;DHT22;20046;50.746;7.072;2023-05-10T12:52:30;17.50;99.90
33717;DHT22;20046;50.746;7.072;2023-05-10T12:54:57;17.40;99.90
33717;DHT22;20046;50.746;7.072;2023-05-10T12:57:23;17.30;99.90
33717;DHT22;20046;50.746;7.072;2023-05-10T12:59:49;17.40;99.90
33717;DHT22;20046;50.746;7.072;2023-05-10T13:02:15;17.40;99.90
33717;DHT22;20046;50.746;7.072;2023-05-10T13:04:43;17.40;99.90
33717;DHT22;20046;50.746;7.072;2023-05-10T13:07:09;17.50;99.90
33717;DHT22;20046;50.746;7.072;2023-05-10T13:09:35;17.70;99.90
33717;DHT22;20046;50.746;7.072;2023-05-10T13:12:01;17.80;99.90
33717;DHT22;20046;50.746;7.072;2023-05-10T13:14:26;18.00;99.90
33717;DHT22;20046;50.746;7.072;2023-05-10T13:16:52;18.20;99.90
33717;DHT22;20046;50.746;7.072;2023-05-10T13:19:17;18.40;99.90
33717;DHT22;20046;50.746;7.072;2023-05-10T13:21:43;18.70;99.90
33717;DHT22;20046;50.746;7.072;2023-05-10T13:24:12;19.10;99.90
33717;DHT22;20046;50.746;7.072;2023-05-10T13:26:43;19.60;99.90
33717;DHT22;20046;50.746;7.072;2023-05-10T13:29:08;20.10;99.90
33717;DHT22;20046;50.746;7.072;2023-05-10T13:31:34;20.60;99.90
33717;DHT22;20046;50.746;7.072;2023-05-10T13:34:01;20.70;99.90
33717;DHT22;20046;50.746;7.072;2023-05-10T13:36:27;20.50;99.90
33717;DHT22;20046;50.746;7.072;2023-05-10T13:38:52;20.50;99.90
33717;DHT22;20046;50.746;7.072;2023-05-10T13:41:18;20.10;99.90
33717;DHT22;20046;50.746;7.072;2023-05-10T13:43:43;19.60;99.90
33717;DHT22;20046;50.746;7.072;2023-05-10T13:46:09;19.20;99.90
33717;DHT22;20046;50.746;7.072;2023-05-10T13:48:34;18.80;99.90
33717;DHT22;20046;50.746;7.072;2023-05-10T13:51:02;18.50;99.90
33717;DHT22;20046;50.746;7.072;2023-05-10T13:53:27;18.20;99.90
33717;DHT22;20046;50.746;7.072;2023-05-10T13:55:53;17.90;99.90
33717;DHT22;20046;50.746;7.072;2023-05-10T13:58:19;17.60;99.90
33717;DHT22;20046;50.746;7.072;2023-05-10T14:00:44;17.50;99.90
33717;DHT22;20046;50.746;7.072;2023-05-10T14:03:10;17.30;99.90
33717;DHT22;20046;50.746;7.072;2023-05-10T14:05:36;17.10;99.90
33717;DHT22;20046;50.746;7.072;2023-05-10T14:08:02;17.00;99.90
33717;DHT22;20046;50.746;7.072;2023-05-10T14:10:29;16.90;99.90
33717;DHT22;20046;50.746;7.072;2023-05-10T14:12:55;16.80;99.90
33717;DHT22;20046;50.746;7.072;2023-05-10T14:15:21;16.70;99.90
33717;DHT22;20046;50.746;7.072;2023-05-10T14:17:46;16.70;99.90
33717;DHT22;20046;50.746;7.072;2023-05-10T14:20:12;16.60;99.90
33717;DHT22;20046;50.746;7.072;2023-05-10T14:22:37;16.60;99.90
33717;DHT22;20046;50.746;7.072;2023-05-10T14:25:03;16.50;99.90
33717;DHT22;20046;50.746;7.072;2023-05-10T14:27:29;16.40;99.90
33717;DHT22;20046;50.746;7.072;2023-05-10T14:29:55;16.40;99.90
33717;DHT22;20046;50.746;7.072;2023-05-10T14:32:21;16.40;99.90
33717;DHT22;20046;50.746;7.072;2023-05-10T14:34:46;16.30;99.90
33717;DHT22;20046;50.746;7.072;2023-05-10T14:37:13;16.30;99.90
33717;DHT22;20046;50.746;7.072;2023-05-10T14:39:39;16.30;99.90
33717;DHT22;20046;50.746;7.072;2023-05-10T14:42:04;16.30;99.90
33717;DHT22;20046;50.746;7.072;2023-05-10T14:44:30;16.30;99.90
33717;DHT22;20046;50.746;7.072;2023-05-10T14:46:55;16.40;99.90
33717;DHT22;20046;50.746;7.072;2023-05-10T14:49:22;16.50;99.90
33717;DHT22;20046;50.746;7.072;2023-05-10T14:51:48;16.70;99.90
33717;DHT22;20046;50.746;7.072;2023-05-10T14:54:14;17.00;99.90
33717;DHT22;20046;50.746;7.072;2023-05-10T14:56:39;17.20;99.90
33717;DHT22;20046;50.746;7.072;2023-05-10T14:59:07;17.20;99.90
33717;DHT22;20046;50.746;7.072;2023-05-10T15:01:32;17.10;99.90
33717;DHT22;20046;50.746;7.072;2023-05-10T15:04:00;17.00;99.90
33717;DHT22;20046;50.746;7.072;2023-05-10T15:06:35;17.00;99.90
33717;DHT22;20046;50.746;7.072;2023-05-10T15:09:01;16.70;99.90
33717;DHT22;20046;50.746;7.072;2023-05-10T15:11:28;16.60;99.90
33717;DHT22;20046;50.746;7.072;2023-05-10T15:13:54;16.40;99.90
33717;DHT22;20046;50.746;7.072;2023-05-10T15:16:20;16.30;99.90
33717;DHT22;20046;50.746;7.072;2023-05-10T15:18:46;16.10;99.90
33717;DHT22;20046;50.746;7.072;2023-05-10T15:21:11;16.10;99.90
33717;DHT22;20046;50.746;7.072;2023-05-10T15:23:37;16.00;99.90
33717;DHT22;20046;50.746;7.072;2023-05-10T15:26:03;15.90;99.90
33717;DHT22;20046;50.746;7.072;2023-05-10T15:28:28;15.90;99.90
33717;DHT22;20046;50.746;7.072;2023-05-10T15:30:54;15.90;99.90
33717;DHT22;20046;50.746;7.072;2023-05-10T15:33:20;15.80;99.90
33717;DHT22;20046;50.746;7.072;2023-05-10T15:35:45;15.70;99.90
33717;DHT22;20046;50.746;7.072;2023-05-10T15:38:11;15.50;99.90
33717;DHT22;20046;50.746;7.072;2023-05-10T15:40:36;15.50;99.90
33717;DHT22;20046;50.746;7.072;2023-05-10T15:43:02;15.40;99.90
33717;DHT22;20046;50.746;7.072;2023-05-10T15:45:28;15.30;99.90
33717;DHT22;20046;50.746;7.072;2023-05-10T15:47:53;15.30;99.90
33717;DHT22;20046;50.746;7.072;2023-05-10T15:50:19;15.30;99.90
33717;DHT22;20046;50.746;7.072;2023-05-10T15:52:44;15.30;99.90
33717;DHT22;20046;50.746;7.072;2023-05-10T15:55:10;15.40;99.90
33717;DHT22;20046;50.746;7.072;2023-05-10T15:57:39;15.60;99.90
33717;DHT22;20046;50.746;7.072;2023-05-10T16:00:08;15.70;99.90
33717;DHT22;20046;50.746;7.072;2023-05-10T16:02:34;15.80;99.90
33717;DHT22;20046;50.746;7.072;2023-05-10T16:05:00;15.90;99.90
33717;DHT22;20046;50.746;7.072;2023-05-10T16:07:26;16.00;99.90
33717;DHT22;20046;50.746;7.072;2023-05-10T16:09:51;16.00;99.90
33717;DHT22;20046;50.746;7.072;2023-05-10T16:12:17;16.00;99.90